createdAt,value
2017-09-06T00:01:02.054Z,0
2017-09-06T00:02:12.144Z,0
2017-09-06T00:03:22.235Z,0
2017-09-06T00:04:32.323Z,0
2017-09-06T00:05:42.408Z,0
2017-09-06T00:06:52.826Z,0
2017-09-06T00:08:02.582Z,0
2017-09-06T00:09:12.669Z,0
2017-09-06T00:10:23.090Z,0
2017-09-06T00:11:33.508Z,0
2017-09-06T00:12:43.462Z,0
2017-09-06T00:13:53.731Z,0
2017-09-06T00:15:03.676Z,0
2017-09-06T00:16:13.623Z,0
2017-09-06T00:17:23.891Z,0
2017-09-06T00:18:34.160Z,0
2017-09-06T00:19:44.427Z,0
2017-09-06T00:20:54.057Z,0
2017-09-06T00:22:04.323Z,0
2017-09-06T00:23:14.589Z,0
2017-09-06T00:24:24.856Z,0
2017-09-06T00:25:34.804Z,0
2017-09-06T00:26:45.074Z,0
2017-09-06T00:27:55.342Z,0
2017-09-06T00:29:05.610Z,0
2017-09-06T00:30:15.895Z,0
2017-09-06T00:31:26.166Z,0
2017-09-06T00:32:36.436Z,0
2017-09-06T00:33:46.381Z,0
2017-09-06T00:34:56.656Z,0
2017-09-06T00:36:06.931Z,0
2017-09-06T00:37:17.198Z,0
2017-09-06T00:38:27.465Z,0
2017-09-06T00:39:37.410Z,0
2017-09-06T00:40:47.369Z,0
2017-09-06T00:41:57.315Z,0
2017-09-06T00:43:07.591Z,0
2017-09-06T00:44:17.859Z,0
2017-09-06T00:45:27.805Z,0
2017-09-06T00:46:38.071Z,0
2017-09-06T00:47:48.375Z,0
2017-09-06T00:48:58.321Z,0
2017-09-06T00:50:08.590Z,0
2017-09-06T00:51:18.547Z,0
2017-09-06T00:52:28.489Z,0
2017-09-06T00:53:38.434Z,0
2017-09-06T00:54:48.383Z,0
2017-09-06T00:55:58.336Z,0
2017-09-06T00:57:08.611Z,0
2017-09-06T00:58:18.880Z,0
2017-09-06T00:59:29.147Z,0
2017-09-06T01:00:39.415Z,0
2017-09-06T01:01:49.066Z,0
2017-09-06T01:02:59.333Z,0
2017-09-06T01:04:09.601Z,0
2017-09-06T01:05:19.901Z,0
2017-09-06T01:06:29.847Z,0
2017-09-06T01:07:39.793Z,0
2017-09-06T01:08:49.740Z,0
2017-09-06T01:10:00.008Z,0
2017-09-06T01:11:09.640Z,0
2017-09-06T01:12:19.589Z,0
2017-09-06T01:13:29.539Z,0
2017-09-06T01:14:39.814Z,0
2017-09-06T01:15:50.081Z,0
2017-09-06T01:17:00.360Z,0
2017-09-06T01:18:10.655Z,0
2017-09-06T01:19:20.928Z,0
2017-09-06T01:20:30.879Z,0
2017-09-06T01:21:41.149Z,0
2017-09-06T01:22:51.422Z,0
2017-09-06T01:24:01.376Z,0
2017-09-06T01:25:11.645Z,0
2017-09-06T01:26:21.924Z,0
2017-09-06T01:27:32.298Z,0
2017-09-06T01:28:42.249Z,0
2017-09-06T01:29:52.196Z,0
2017-09-06T01:31:02.145Z,0
2017-09-06T01:32:12.089Z,0
2017-09-06T01:33:24.608Z,0
2017-09-06T01:34:34.555Z,0
2017-09-06T01:35:44.822Z,0
2017-09-06T01:36:55.094Z,0
2017-09-06T01:38:05.365Z,0
2017-09-06T01:39:15.784Z,0
2017-09-06T01:40:25.732Z,0
2017-09-06T01:41:35.683Z,0
2017-09-06T01:42:45.954Z,0
2017-09-06T01:43:56.218Z,0
2017-09-06T01:45:06.837Z,0
2017-09-06T01:46:16.785Z,0
2017-09-06T01:47:27.052Z,0
2017-09-06T01:48:36.998Z,0
2017-09-06T01:49:46.949Z,0
2017-09-06T01:51:01.000Z,0
2017-09-06T01:52:11.267Z,0
2017-09-06T01:53:21.537Z,0
2017-09-06T01:54:31.482Z,0
2017-09-06T01:55:41.749Z,0
2017-09-06T01:56:52.023Z,0
2017-09-06T01:58:02.292Z,0
2017-09-06T01:59:12.234Z,0
2017-09-06T02:00:22.181Z,0
2017-09-06T02:01:32.449Z,0
2017-09-06T02:02:42.713Z,0
2017-09-06T02:03:52.982Z,0
2017-09-06T02:05:02.605Z,0
2017-09-06T02:06:12.230Z,0
2017-09-06T02:07:22.180Z,0
2017-09-06T02:08:32.446Z,0
2017-09-06T02:09:42.712Z,0
2017-09-06T02:10:52.984Z,0
2017-09-06T02:12:03.252Z,0
2017-09-06T02:13:13.519Z,0
2017-09-06T02:14:23.788Z,0
2017-09-06T02:15:33.740Z,0
2017-09-06T02:16:44.006Z,0
2017-09-06T02:17:54.293Z,0
2017-09-06T02:19:04.572Z,0
2017-09-06T02:20:14.516Z,0
2017-09-06T02:21:24.784Z,0
2017-09-06T02:22:34.730Z,0
2017-09-06T02:23:44.995Z,0
2017-09-06T02:24:55.272Z,0
2017-09-06T02:26:05.218Z,0
2017-09-06T02:27:15.164Z,0
2017-09-06T02:28:25.429Z,0
2017-09-06T02:29:35.702Z,0
2017-09-06T02:30:45.649Z,0
2017-09-06T02:31:55.610Z,0
2017-09-06T02:33:05.881Z,0
2017-09-06T02:34:15.829Z,0
2017-09-06T02:35:25.777Z,0
2017-09-06T02:36:36.057Z,0
2017-09-06T02:37:46.322Z,0
2017-09-06T02:38:56.268Z,0
2017-09-06T02:40:06.538Z,0
2017-09-06T02:41:16.819Z,0
2017-09-06T02:42:27.095Z,0
2017-09-06T02:43:37.370Z,0
2017-09-06T02:44:47.643Z,0
2017-09-06T02:45:57.268Z,0
2017-09-06T02:47:07.547Z,0
2017-09-06T02:48:17.853Z,0
2017-09-06T02:49:28.128Z,0
2017-09-06T02:50:38.407Z,0
2017-09-06T02:51:48.357Z,0
2017-09-06T02:52:58.634Z,0
2017-09-06T02:54:08.921Z,0
2017-09-06T02:55:19.191Z,0
2017-09-06T02:56:28.850Z,0
2017-09-06T02:57:39.120Z,0
2017-09-06T02:58:49.387Z,0
2017-09-06T02:59:59.654Z,0
2017-09-06T03:01:09.919Z,0
2017-09-06T03:02:20.187Z,0
2017-09-06T03:03:30.488Z,0
2017-09-06T03:04:40.433Z,0
2017-09-06T03:05:50.699Z,0
2017-09-06T03:07:00.646Z,0
2017-09-06T03:08:10.594Z,0
2017-09-06T03:09:20.875Z,0
2017-09-06T03:10:31.140Z,0
2017-09-06T03:11:40.765Z,0
2017-09-06T03:12:51.034Z,0
2017-09-06T03:14:01.308Z,0
2017-09-06T03:15:11.581Z,0
2017-09-06T03:16:21.861Z,0
2017-09-06T03:17:31.812Z,0
2017-09-06T03:18:42.082Z,0
2017-09-06T03:19:52.347Z,0
2017-09-06T03:21:02.615Z,0
2017-09-06T03:22:12.880Z,0
2017-09-06T03:23:23.148Z,0
2017-09-06T03:24:33.418Z,0
2017-09-06T03:25:43.699Z,0
2017-09-06T03:26:53.644Z,0
2017-09-06T03:28:03.267Z,0
2017-09-06T03:29:13.531Z,0
2017-09-06T03:30:23.807Z,0
2017-09-06T03:31:34.083Z,0
2017-09-06T03:32:44.352Z,0
2017-09-06T03:33:54.297Z,0
2017-09-06T03:35:04.564Z,0
2017-09-06T03:36:14.517Z,0
2017-09-06T03:37:24.788Z,0
2017-09-06T03:38:34.410Z,0
2017-09-06T03:39:44.716Z,0
2017-09-06T03:40:54.983Z,0
2017-09-06T03:42:04.941Z,0
2017-09-06T03:43:15.207Z,0
2017-09-06T03:44:25.474Z,0
2017-09-06T03:45:35.741Z,0
2017-09-06T03:46:45.689Z,0
2017-09-06T03:47:55.954Z,0
2017-09-06T03:49:06.222Z,0
2017-09-06T03:50:15.845Z,0
2017-09-06T03:51:26.111Z,0
2017-09-06T03:52:36.382Z,0
2017-09-06T03:53:46.650Z,0
2017-09-06T03:54:56.285Z,0
2017-09-06T03:56:06.549Z,0
2017-09-06T03:57:16.494Z,0
2017-09-06T03:58:26.759Z,0
2017-09-06T03:59:36.706Z,0
2017-09-06T04:00:46.659Z,0
2017-09-06T04:01:56.929Z,0
2017-09-06T04:03:07.196Z,0
2017-09-06T04:04:17.461Z,0
2017-09-06T04:05:27.092Z,0
2017-09-06T04:06:37.036Z,0
2017-09-06T04:07:46.658Z,0
2017-09-06T04:08:56.927Z,0
2017-09-06T04:10:07.193Z,0
2017-09-06T04:11:17.496Z,0
2017-09-06T04:12:27.766Z,0
2017-09-06T04:13:37.390Z,0
2017-09-06T04:14:47.656Z,0
2017-09-06T04:15:57.922Z,0
2017-09-06T04:17:07.870Z,0
2017-09-06T04:18:18.139Z,0
2017-09-06T04:19:27.441Z,0
2017-09-06T04:20:37.386Z,0
2017-09-06T04:21:47.648Z,0
2017-09-06T04:22:57.949Z,0
2017-09-06T04:24:08.211Z,0
2017-09-06T04:25:17.512Z,0
2017-09-06T04:26:27.778Z,0
2017-09-06T04:27:37.727Z,0
2017-09-06T04:28:47.997Z,0
2017-09-06T04:29:58.266Z,0
2017-09-06T04:31:08.532Z,0
2017-09-06T04:32:18.475Z,0
2017-09-06T04:33:28.420Z,0
2017-09-06T04:34:38.686Z,0
2017-09-06T04:35:48.953Z,0
2017-09-06T04:36:59.221Z,0
2017-09-06T04:38:09.166Z,0
2017-09-06T04:39:19.434Z,0
2017-09-06T04:40:29.059Z,5
2017-09-06T04:41:39.003Z,5
2017-09-06T04:42:48.947Z,0
2017-09-06T04:43:58.576Z,0
2017-09-06T04:45:08.847Z,5
2017-09-06T04:46:18.794Z,5
2017-09-06T04:47:28.416Z,5
2017-09-06T04:48:38.360Z,5
2017-09-06T04:49:48.629Z,5
2017-09-06T04:50:58.899Z,5
2017-09-06T04:52:09.174Z,5
2017-09-06T04:53:19.451Z,5
2017-09-06T04:54:29.716Z,5
2017-09-06T04:55:39.663Z,5
2017-09-06T04:56:49.929Z,5
2017-09-06T04:57:59.872Z,10
2017-09-06T04:59:10.141Z,10
2017-09-06T05:00:20.410Z,10
2017-09-06T05:01:30.354Z,10
2017-09-06T05:02:40.302Z,15
2017-09-06T05:03:49.944Z,15
2017-09-06T05:05:00.211Z,15
2017-09-06T05:06:10.156Z,15
2017-09-06T05:07:20.431Z,15
2017-09-06T05:08:30.377Z,20
2017-09-06T05:09:40.653Z,20
2017-09-06T05:10:50.925Z,15
2017-09-06T05:12:00.898Z,15
2017-09-06T05:13:11.172Z,10
2017-09-06T05:14:21.435Z,15
2017-09-06T05:15:31.705Z,15
2017-09-06T05:16:41.689Z,15
2017-09-06T05:17:51.638Z,15
2017-09-06T05:19:01.593Z,15
2017-09-06T05:20:11.553Z,10
2017-09-06T05:21:21.822Z,10
2017-09-06T05:22:32.089Z,10
2017-09-06T05:23:42.357Z,10
2017-09-06T05:24:51.984Z,15
2017-09-06T05:26:02.255Z,15
2017-09-06T05:27:12.530Z,15
2017-09-06T05:28:22.793Z,15
2017-09-06T05:29:33.064Z,10
2017-09-06T05:30:43.326Z,15
2017-09-06T05:31:53.592Z,15
2017-09-06T05:33:03.540Z,20
2017-09-06T05:34:13.491Z,15
2017-09-06T05:35:23.758Z,20
2017-09-06T05:36:33.709Z,20
2017-09-06T05:37:43.654Z,15
2017-09-06T05:38:54.274Z,20
2017-09-06T05:40:04.540Z,20
2017-09-06T05:41:14.808Z,20
2017-09-06T05:42:25.090Z,15
2017-09-06T05:43:35.356Z,20
2017-09-06T05:44:45.304Z,20
2017-09-06T05:45:55.250Z,20
2017-09-06T05:47:05.514Z,20
2017-09-06T05:48:15.784Z,20
2017-09-06T05:49:26.056Z,20
2017-09-06T05:50:36.320Z,20
2017-09-06T05:51:46.265Z,20
2017-09-06T05:52:56.538Z,25
2017-09-06T05:54:06.806Z,30
2017-09-06T05:55:17.080Z,30
2017-09-06T05:56:27.354Z,35
2017-09-06T05:57:37.315Z,35
2017-09-06T05:58:47.589Z,35
2017-09-06T05:59:57.864Z,35
2017-09-06T06:01:07.828Z,40
2017-09-06T06:02:18.105Z,45
2017-09-06T06:03:28.386Z,45
2017-09-06T06:04:38.333Z,45
2017-09-06T06:05:48.277Z,45
2017-09-06T06:06:58.542Z,45
2017-09-06T06:08:08.807Z,45
2017-09-06T06:09:19.078Z,40
2017-09-06T06:10:29.343Z,40
2017-09-06T06:11:39.609Z,40
2017-09-06T06:12:49.884Z,45
2017-09-06T06:14:00.158Z,50
2017-09-06T06:15:10.116Z,65
2017-09-06T06:16:20.063Z,70
2017-09-06T06:17:30.664Z,70
2017-09-06T06:18:40.933Z,70
2017-09-06T06:19:51.199Z,60
2017-09-06T06:21:01.471Z,65
2017-09-06T06:22:11.461Z,60
2017-09-06T06:23:21.734Z,60
2017-09-06T06:24:31.678Z,55
2017-09-06T06:25:41.944Z,60
2017-09-06T06:26:52.211Z,60
2017-09-06T06:28:02.159Z,60
2017-09-06T06:29:12.107Z,55
2017-09-06T06:30:22.053Z,50
2017-09-06T06:31:32.323Z,45
2017-09-06T06:32:42.601Z,55
2017-09-06T06:33:52.238Z,55
2017-09-06T06:35:02.507Z,55
2017-09-06T06:36:12.131Z,65
2017-09-06T06:37:22.398Z,65
2017-09-06T06:38:32.666Z,65
2017-09-06T06:39:42.942Z,60
2017-09-06T06:40:52.571Z,55
2017-09-06T06:42:02.207Z,50
2017-09-06T06:43:11.829Z,45
2017-09-06T06:44:21.453Z,50
2017-09-06T06:45:31.725Z,55
2017-09-06T06:46:41.991Z,50
2017-09-06T06:47:52.269Z,50
2017-09-06T06:49:02.537Z,60
2017-09-06T06:50:12.164Z,60
2017-09-06T06:51:22.109Z,60
2017-09-06T06:52:32.377Z,60
2017-09-06T06:53:42.330Z,55
2017-09-06T06:54:52.596Z,65
2017-09-06T06:56:02.867Z,55
2017-09-06T06:57:12.831Z,60
2017-09-06T06:58:22.807Z,60
2017-09-06T06:59:32.752Z,60
2017-09-06T07:00:43.026Z,65
2017-09-06T07:01:52.970Z,65
2017-09-06T07:03:02.593Z,80
2017-09-06T07:04:12.865Z,85
2017-09-06T07:05:22.820Z,85
2017-09-06T07:06:33.086Z,75
2017-09-06T07:07:43.029Z,70
2017-09-06T07:08:52.654Z,65
2017-09-06T07:10:02.921Z,70
2017-09-06T07:11:13.186Z,75
2017-09-06T07:12:23.459Z,85
2017-09-06T07:13:33.756Z,65
2017-09-06T07:14:44.021Z,70
2017-09-06T07:15:53.972Z,60
2017-09-06T07:17:04.241Z,85
2017-09-06T07:18:14.234Z,75
2017-09-06T07:19:24.509Z,90
2017-09-06T07:20:34.458Z,70
2017-09-06T07:21:44.082Z,80
2017-09-06T07:22:54.031Z,55
2017-09-06T07:24:04.301Z,60
2017-09-06T07:25:14.247Z,65
2017-09-06T07:26:24.519Z,60
2017-09-06T07:27:34.786Z,55
2017-09-06T07:28:45.055Z,70
2017-09-06T07:29:55.002Z,65
2017-09-06T07:31:05.280Z,70
2017-09-06T07:32:14.903Z,60
2017-09-06T07:33:25.170Z,65
2017-09-06T07:34:35.117Z,60
2017-09-06T07:35:45.397Z,65
2017-09-06T07:36:55.027Z,65
2017-09-06T07:38:04.657Z,70
2017-09-06T07:39:14.602Z,60
2017-09-06T07:40:24.553Z,60
2017-09-06T07:41:34.820Z,60
2017-09-06T07:42:45.098Z,55
2017-09-06T07:43:55.368Z,60
2017-09-06T07:45:05.317Z,45
2017-09-06T07:46:15.266Z,65
2017-09-06T07:47:25.540Z,60
2017-09-06T07:48:35.163Z,75
2017-09-06T07:49:45.468Z,70
2017-09-06T07:50:55.414Z,75
2017-09-06T07:52:05.360Z,85
2017-09-06T07:53:15.305Z,80
2017-09-06T07:54:25.581Z,85
2017-09-06T07:55:35.850Z,55
2017-09-06T07:56:45.810Z,70
2017-09-06T07:57:56.079Z,55
2017-09-06T07:59:06.349Z,55
2017-09-06T08:00:16.293Z,60
2017-09-06T08:01:26.245Z,70
2017-09-06T08:02:36.191Z,80
2017-09-06T08:03:46.140Z,65
2017-09-06T08:04:56.409Z,65
2017-09-06T08:06:06.357Z,65
2017-09-06T08:07:16.629Z,55
2017-09-06T08:08:26.586Z,50
2017-09-06T08:09:36.858Z,45
2017-09-06T08:10:47.135Z,50
2017-09-06T08:11:57.405Z,45
2017-09-06T08:13:07.675Z,50
2017-09-06T08:14:17.299Z,65
2017-09-06T08:15:27.244Z,65
2017-09-06T08:16:37.512Z,75
2017-09-06T08:17:47.460Z,65
2017-09-06T08:18:57.730Z,65
2017-09-06T08:20:07.680Z,85
2017-09-06T08:21:17.625Z,135
2017-09-06T08:22:27.574Z,115
2017-09-06T08:23:37.849Z,150
2017-09-06T08:24:47.793Z,135
2017-09-06T08:25:57.740Z,80
2017-09-06T08:27:07.683Z,55
2017-09-06T08:28:17.633Z,60
2017-09-06T08:29:27.585Z,70
2017-09-06T08:30:37.853Z,70
2017-09-06T08:31:48.118Z,60
2017-09-06T08:32:58.390Z,65
2017-09-06T08:34:08.023Z,60
2017-09-06T08:35:18.290Z,65
2017-09-06T08:36:28.558Z,50
2017-09-06T08:37:38.826Z,55
2017-09-06T08:38:48.775Z,55
2017-09-06T08:39:59.045Z,50
2017-09-06T08:41:08.669Z,65
2017-09-06T08:42:17.978Z,70
2017-09-06T08:43:28.244Z,75
2017-09-06T08:44:37.871Z,70
2017-09-06T08:45:48.140Z,55
2017-09-06T08:46:58.086Z,50
2017-09-06T08:48:08.355Z,55
2017-09-06T08:49:18.303Z,55
2017-09-06T08:50:28.582Z,60
2017-09-06T08:51:38.527Z,65
2017-09-06T08:52:48.798Z,75
2017-09-06T08:53:59.070Z,60
2017-09-06T08:55:09.336Z,60
2017-09-06T08:56:19.634Z,50
2017-09-06T08:57:29.901Z,55
2017-09-06T08:58:40.178Z,50
2017-09-06T08:59:50.134Z,65
2017-09-06T09:01:00.086Z,45
2017-09-06T09:02:10.041Z,45
2017-09-06T09:03:19.996Z,60
2017-09-06T09:04:30.270Z,70
2017-09-06T09:05:40.218Z,75
2017-09-06T09:06:50.200Z,55
2017-09-06T09:08:00.145Z,65
2017-09-06T09:09:10.092Z,65
2017-09-06T09:10:20.360Z,65
2017-09-06T09:11:30.309Z,65
2017-09-06T09:12:40.583Z,50
2017-09-06T09:13:50.208Z,65
2017-09-06T09:15:00.155Z,75
2017-09-06T09:16:10.103Z,60
2017-09-06T09:17:20.376Z,65
2017-09-06T09:18:30.657Z,75
2017-09-06T09:19:40.618Z,75
2017-09-06T09:20:50.568Z,85
2017-09-06T09:22:00.846Z,75
2017-09-06T09:23:10.150Z,90
2017-09-06T09:24:20.419Z,75
2017-09-06T09:25:30.368Z,75
2017-09-06T09:26:40.636Z,65
2017-09-06T09:27:50.268Z,60
2017-09-06T09:29:00.539Z,80
2017-09-06T09:30:09.846Z,50
2017-09-06T09:31:19.794Z,60
2017-09-06T09:32:29.740Z,55
2017-09-06T09:33:40.005Z,60
2017-09-06T09:34:49.637Z,60
2017-09-06T09:35:59.584Z,60
2017-09-06T09:37:09.851Z,60
2017-09-06T09:38:20.127Z,95
2017-09-06T09:39:29.753Z,75
2017-09-06T09:40:40.024Z,85
2017-09-06T09:41:50.295Z,85
2017-09-06T09:43:00.250Z,60
2017-09-06T09:44:10.532Z,60
2017-09-06T09:45:20.802Z,85
2017-09-06T09:46:31.071Z,65
2017-09-06T09:47:41.340Z,65
2017-09-06T09:48:51.291Z,80
2017-09-06T09:50:01.240Z,75
2017-09-06T09:51:11.188Z,95
2017-09-06T09:52:21.135Z,100
2017-09-06T09:53:31.083Z,90
2017-09-06T09:54:41.351Z,95
2017-09-06T09:55:51.625Z,75
2017-09-06T09:57:01.578Z,80
2017-09-06T09:58:11.852Z,80
2017-09-06T09:59:21.157Z,70
2017-09-06T10:00:31.111Z,80
2017-09-06T10:01:41.060Z,75
2017-09-06T10:02:51.006Z,80
2017-09-06T10:04:01.273Z,85
2017-09-06T10:05:11.226Z,95
2017-09-06T10:06:21.494Z,70
2017-09-06T10:07:31.444Z,100
2017-09-06T10:08:41.787Z,100
2017-09-06T10:09:51.738Z,155
2017-09-06T10:11:01.685Z,120
2017-09-06T10:12:11.631Z,105
2017-09-06T10:13:21.901Z,95
2017-09-06T10:14:31.849Z,85
2017-09-06T10:15:41.804Z,70
2017-09-06T10:16:51.433Z,90
2017-09-06T10:18:01.703Z,85
2017-09-06T10:19:11.649Z,130
2017-09-06T10:20:21.595Z,140
2017-09-06T10:21:31.865Z,120
2017-09-06T10:22:41.813Z,105
2017-09-06T10:23:51.761Z,105
2017-09-06T10:25:02.029Z,105
2017-09-06T10:26:11.657Z,95
2017-09-06T10:27:21.927Z,75
2017-09-06T10:28:32.197Z,115
2017-09-06T10:29:41.505Z,95
2017-09-06T10:30:51.776Z,85
2017-09-06T10:32:02.053Z,130
2017-09-06T10:33:12.011Z,120
2017-09-06T10:34:22.287Z,95
2017-09-06T10:35:32.236Z,125
2017-09-06T10:36:42.512Z,110
2017-09-06T10:37:52.783Z,115
2017-09-06T10:39:03.055Z,90
2017-09-06T10:40:13.329Z,125
2017-09-06T10:41:23.597Z,100
2017-09-06T10:42:32.902Z,115
2017-09-06T10:43:43.178Z,125
2017-09-06T10:44:53.454Z,145
2017-09-06T10:46:03.724Z,110
2017-09-06T10:47:13.670Z,140
2017-09-06T10:48:23.970Z,155
2017-09-06T10:49:33.918Z,120
2017-09-06T10:50:43.866Z,120
2017-09-06T10:51:54.139Z,175
2017-09-06T10:53:04.406Z,145
2017-09-06T10:54:14.032Z,175
2017-09-06T10:55:24.303Z,170
2017-09-06T10:56:34.573Z,165
2017-09-06T10:57:44.864Z,195
2017-09-06T10:58:55.142Z,150
2017-09-06T11:00:05.096Z,195
2017-09-06T11:01:14.736Z,165
2017-09-06T11:02:24.686Z,165
2017-09-06T11:03:34.955Z,135
2017-09-06T11:04:44.903Z,195
2017-09-06T11:05:55.171Z,195
2017-09-06T11:07:05.463Z,225
2017-09-06T11:08:15.733Z,180
2017-09-06T11:09:25.362Z,185
2017-09-06T11:10:35.677Z,160
2017-09-06T11:11:45.626Z,130
2017-09-06T11:12:55.897Z,115
2017-09-06T11:14:06.165Z,100
2017-09-06T11:15:16.119Z,110
2017-09-06T11:16:26.389Z,90
2017-09-06T11:17:36.338Z,95
2017-09-06T11:18:46.288Z,85
2017-09-06T11:19:56.237Z,85
2017-09-06T11:21:06.187Z,85
2017-09-06T11:22:16.459Z,65
2017-09-06T11:23:26.729Z,85
2017-09-06T11:24:37.004Z,95
2017-09-06T11:25:47.274Z,95
2017-09-06T11:26:57.221Z,95
2017-09-06T11:28:07.171Z,95
2017-09-06T11:29:17.442Z,90
2017-09-06T11:30:27.713Z,80
2017-09-06T11:31:37.988Z,105
2017-09-06T11:32:48.258Z,110
2017-09-06T11:33:58.208Z,90
2017-09-06T11:35:09.839Z,105
2017-09-06T11:36:19.469Z,100
2017-09-06T11:37:29.738Z,95
2017-09-06T11:38:40.009Z,100
2017-09-06T11:39:49.960Z,95
2017-09-06T11:40:59.907Z,90
2017-09-06T11:42:10.176Z,75
2017-09-06T11:43:20.444Z,80
2017-09-06T11:44:30.723Z,95
2017-09-06T11:45:40.996Z,115
2017-09-06T11:46:51.421Z,80
2017-09-06T11:48:01.375Z,85
2017-09-06T11:49:11.324Z,100
2017-09-06T11:50:21.611Z,80
2017-09-06T11:51:31.883Z,95
2017-09-06T11:52:41.190Z,105
2017-09-06T11:53:50.817Z,105
2017-09-06T11:55:00.769Z,80
2017-09-06T11:56:10.717Z,135
2017-09-06T11:57:20.664Z,110
2017-09-06T11:58:30.615Z,110
2017-09-06T11:59:40.566Z,135
2017-09-06T12:00:50.202Z,135
2017-09-06T12:02:00.146Z,130
2017-09-06T12:03:10.095Z,125
2017-09-06T12:04:20.383Z,140
2017-09-06T12:05:30.333Z,200
2017-09-06T12:06:40.281Z,155
2017-09-06T12:07:49.268Z,145
2017-09-06T12:08:59.222Z,155
2017-09-06T12:10:09.171Z,155
2017-09-06T12:11:19.440Z,195
2017-09-06T12:12:29.714Z,195
2017-09-06T12:13:39.339Z,190
2017-09-06T12:14:49.287Z,185
2017-09-06T12:15:58.596Z,190
2017-09-06T12:17:08.872Z,180
2017-09-06T12:18:18.826Z,175
2017-09-06T12:19:29.097Z,155
2017-09-06T12:20:39.367Z,150
2017-09-06T12:21:48.671Z,180
2017-09-06T12:22:58.946Z,195
2017-09-06T12:24:09.228Z,110
2017-09-06T12:25:19.175Z,95
2017-09-06T12:26:29.477Z,95
2017-09-06T12:27:39.754Z,130
2017-09-06T12:28:49.483Z,155
2017-09-06T12:29:59.111Z,155
2017-09-06T12:31:09.058Z,175
2017-09-06T12:32:19.008Z,190
2017-09-06T12:33:28.676Z,185
2017-09-06T12:34:38.979Z,170
2017-09-06T12:35:48.612Z,165
2017-09-06T12:36:58.882Z,120
2017-09-06T12:38:08.188Z,130
2017-09-06T12:39:18.459Z,120
2017-09-06T12:40:28.726Z,130
2017-09-06T12:41:38.673Z,135
2017-09-06T12:42:48.625Z,180
2017-09-06T12:43:58.894Z,155
2017-09-06T12:45:09.162Z,175
2017-09-06T12:46:18.792Z,135
2017-09-06T12:47:29.064Z,190
2017-09-06T12:48:39.331Z,145
2017-09-06T12:49:49.603Z,115
2017-09-06T12:50:59.227Z,110
2017-09-06T12:52:09.169Z,155
2017-09-06T12:53:19.141Z,105
2017-09-06T12:54:29.442Z,90
2017-09-06T12:55:39.391Z,130
2017-09-06T12:56:49.675Z,115
2017-09-06T12:57:59.628Z,95
2017-09-06T12:59:09.252Z,65
2017-09-06T13:00:19.199Z,70
2017-09-06T13:01:29.149Z,75
2017-09-06T13:02:39.097Z,60
2017-09-06T13:03:49.376Z,65
2017-09-06T13:04:59.646Z,60
2017-09-06T13:06:09.272Z,65
2017-09-06T13:07:19.226Z,65
2017-09-06T13:08:29.508Z,65
2017-09-06T13:09:39.461Z,50
2017-09-06T13:10:49.408Z,55
2017-09-06T13:11:59.677Z,55
2017-09-06T13:13:09.948Z,70
2017-09-06T13:14:19.572Z,55
2017-09-06T13:15:29.839Z,50
2017-09-06T13:16:39.823Z,70
2017-09-06T13:17:50.092Z,85
2017-09-06T13:19:00.036Z,115
2017-09-06T13:20:09.983Z,110
2017-09-06T13:21:20.255Z,95
2017-09-06T13:22:30.534Z,110
2017-09-06T13:23:40.804Z,110
2017-09-06T13:24:50.107Z,85
2017-09-06T13:26:00.378Z,150
2017-09-06T13:27:10.328Z,150
2017-09-06T13:28:20.274Z,135
2017-09-06T13:29:30.219Z,135
2017-09-06T13:30:40.165Z,140
2017-09-06T13:31:52.124Z,140
2017-09-06T13:33:02.073Z,140
2017-09-06T13:34:11.704Z,155
2017-09-06T13:35:21.650Z,175
2017-09-06T13:36:31.599Z,160
2017-09-06T13:37:41.228Z,115
2017-09-06T13:38:51.175Z,110
2017-09-06T13:40:01.122Z,125
2017-09-06T13:41:10.750Z,140
2017-09-06T13:42:21.020Z,135
2017-09-06T13:43:30.969Z,80
2017-09-06T13:44:40.596Z,75
2017-09-06T13:45:50.869Z,80
2017-09-06T13:47:01.140Z,60
2017-09-06T13:48:11.093Z,80
2017-09-06T13:49:21.040Z,105
2017-09-06T13:50:31.312Z,110
2017-09-06T13:51:41.581Z,110
2017-09-06T13:52:51.208Z,75
2017-09-06T13:54:01.495Z,65
2017-09-06T13:55:11.767Z,90
2017-09-06T13:56:21.714Z,140
2017-09-06T13:57:31.339Z,120
2017-09-06T13:58:41.292Z,125
2017-09-06T13:59:50.596Z,145
2017-09-06T14:01:00.544Z,140
2017-09-06T14:02:10.812Z,105
2017-09-06T14:03:21.081Z,120
2017-09-06T14:04:31.032Z,85
2017-09-06T14:05:41.300Z,115
2017-09-06T14:06:50.928Z,175
2017-09-06T14:08:01.197Z,190
2017-09-06T14:09:11.148Z,175
2017-09-06T14:10:21.096Z,160
2017-09-06T14:11:31.366Z,135
2017-09-06T14:12:41.638Z,165
2017-09-06T14:13:51.591Z,155
2017-09-06T14:15:01.538Z,150
2017-09-06T14:16:11.814Z,150
2017-09-06T14:17:21.442Z,130
2017-09-06T14:18:31.392Z,105
2017-09-06T14:19:41.661Z,165
2017-09-06T14:20:51.930Z,155
2017-09-06T14:22:02.201Z,160
2017-09-06T14:23:11.830Z,135
2017-09-06T14:24:21.462Z,140
2017-09-06T14:25:31.408Z,135
2017-09-06T14:26:41.695Z,130
2017-09-06T14:27:51.964Z,135
2017-09-06T14:29:02.238Z,125
2017-09-06T14:30:11.861Z,120
2017-09-06T14:31:21.486Z,120
2017-09-06T14:32:31.434Z,95
2017-09-06T14:33:40.772Z,105
2017-09-06T14:34:50.720Z,95
2017-09-06T14:36:00.994Z,65
2017-09-06T14:37:11.263Z,60
2017-09-06T14:38:21.537Z,65
2017-09-06T14:39:31.502Z,80
2017-09-06T14:40:41.774Z,95
2017-09-06T14:41:52.079Z,105
2017-09-06T14:43:02.025Z,105
2017-09-06T14:44:11.973Z,110
2017-09-06T14:45:21.600Z,100
2017-09-06T14:46:31.916Z,75
2017-09-06T14:47:42.187Z,80
2017-09-06T14:48:52.458Z,65
2017-09-06T14:50:02.723Z,80
2017-09-06T14:51:12.669Z,90
2017-09-06T14:52:22.622Z,95
2017-09-06T14:53:32.249Z,70
2017-09-06T14:54:42.199Z,60
2017-09-06T14:55:52.482Z,55
2017-09-06T14:57:02.761Z,95
2017-09-06T14:58:12.718Z,80
2017-09-06T14:59:22.667Z,60
2017-09-06T15:00:32.944Z,70
2017-09-06T15:01:42.895Z,70
2017-09-06T15:02:53.171Z,65
2017-09-06T15:04:03.437Z,75
2017-09-06T15:05:13.069Z,90
2017-09-06T15:06:23.345Z,60
2017-09-06T15:07:33.296Z,55
2017-09-06T15:08:42.921Z,70
2017-09-06T15:09:52.551Z,40
2017-09-06T15:11:02.828Z,50
2017-09-06T15:12:13.099Z,70
2017-09-06T15:13:23.047Z,65
2017-09-06T15:14:32.995Z,40
2017-09-06T15:15:43.334Z,60
2017-09-06T15:16:53.600Z,65
2017-09-06T15:18:03.874Z,35
2017-09-06T15:19:13.499Z,30
2017-09-06T15:20:23.131Z,45
2017-09-06T15:21:32.756Z,70
2017-09-06T15:22:42.707Z,40
2017-09-06T15:23:52.655Z,40
2017-09-06T15:25:02.601Z,45
2017-09-06T15:26:12.553Z,60
2017-09-06T15:27:22.504Z,35
2017-09-06T15:28:34.456Z,35
2017-09-06T15:29:44.728Z,30
2017-09-06T15:30:54.357Z,50
2017-09-06T15:32:04.628Z,30
2017-09-06T15:33:14.903Z,30
2017-09-06T15:34:24.847Z,30
2017-09-06T15:35:35.122Z,55
2017-09-06T15:36:44.751Z,50
2017-09-06T15:37:55.029Z,50
2017-09-06T15:39:05.299Z,40
2017-09-06T15:40:15.579Z,25
2017-09-06T15:41:25.530Z,30
2017-09-06T15:42:35.802Z,25
2017-09-06T15:43:45.751Z,25
2017-09-06T15:44:55.696Z,25
2017-09-06T15:46:05.654Z,25
2017-09-06T15:47:15.920Z,20
2017-09-06T15:48:25.545Z,20
2017-09-06T15:49:35.823Z,25
2017-09-06T15:50:45.797Z,30
2017-09-06T15:51:56.065Z,20
2017-09-06T15:53:06.339Z,20
2017-09-06T15:54:16.614Z,25
2017-09-06T15:55:26.884Z,20
2017-09-06T15:56:37.153Z,20
2017-09-06T15:57:46.781Z,20
2017-09-06T15:58:57.050Z,25
2017-09-06T16:00:06.685Z,20
2017-09-06T16:01:16.633Z,15
2017-09-06T16:02:26.903Z,20
2017-09-06T16:03:36.847Z,20
2017-09-06T16:04:46.799Z,25
2017-09-06T16:05:56.746Z,20
2017-09-06T16:07:07.014Z,25
2017-09-06T16:08:17.285Z,25
2017-09-06T16:09:27.584Z,25
2017-09-06T16:10:37.209Z,20
2017-09-06T16:11:47.155Z,20
2017-09-06T16:12:57.426Z,20
2017-09-06T16:14:07.379Z,25
2017-09-06T16:15:17.650Z,25
2017-09-06T16:16:27.601Z,25
2017-09-06T16:17:37.885Z,25
2017-09-06T16:18:48.153Z,20
2017-09-06T16:19:58.099Z,15
2017-09-06T16:21:08.045Z,20
2017-09-06T16:22:18.312Z,25
2017-09-06T16:23:28.582Z,20
2017-09-06T16:24:38.528Z,15
2017-09-06T16:25:48.477Z,15
2017-09-06T16:26:58.102Z,15
2017-09-06T16:28:08.048Z,15
2017-09-06T16:29:18.314Z,15
2017-09-06T16:30:28.266Z,15
2017-09-06T16:31:38.538Z,15
2017-09-06T16:32:48.491Z,15
2017-09-06T16:33:58.440Z,20
2017-09-06T16:35:08.391Z,15
2017-09-06T16:36:18.018Z,15
2017-09-06T16:37:28.289Z,15
2017-09-06T16:38:40.956Z,15
2017-09-06T16:39:51.225Z,15
2017-09-06T16:41:01.495Z,15
2017-09-06T16:42:11.443Z,20
2017-09-06T16:43:21.398Z,20